sensor_id;sensor_type;location;lat;lon;timestamp;P1;durP1;ratioP1;P2;durP2;ratioP2
14474;SDS011;7323;50.848;4.334;2022-07-29T00:00:58;4.17;;;1.60;;
14474;SDS011;7323;50.848;4.334;2022-07-29T00:03:24;3.90;;;1.83;;
14474;SDS011;7323;50.848;4.334;2022-07-29T00:05:50;5.17;;;2.23;;
14474;SDS011;7323;50.848;4.334;2022-07-29T00:08:18;4.03;;;2.00;;
14474;SDS011;7323;50.848;4.334;2022-07-29T00:10:44;5.03;;;1.80;;
14474;SDS011;7323;50.848;4.334;2022-07-29T00:13:10;5.20;;;1.80;;
14474;SDS011;7323;50.848;4.334;2022-07-29T00:15:36;3.33;;;1.77;;
14474;SDS011;7323;50.848;4.334;2022-07-29T00:18:02;4.77;;;1.73;;
14474;SDS011;7323;50.848;4.334;2022-07-29T00:20:28;3.97;;;1.83;;
14474;SDS011;7323;50.848;4.334;2022-07-29T00:22:54;3.37;;;1.50;;
14474;SDS011;7323;50.848;4.334;2022-07-29T00:25:20;5.03;;;2.03;;
14474;SDS011;7323;50.848;4.334;2022-07-29T00:27:46;4.60;;;2.20;;
14474;SDS011;7323;50.848;4.334;2022-07-29T00:30:11;3.50;;;2.10;;
14474;SDS011;7323;50.848;4.334;2022-07-29T00:32:37;4.23;;;1.87;;
14474;SDS011;7323;50.848;4.334;2022-07-29T00:35:04;4.30;;;2.20;;
14474;SDS011;7323;50.848;4.334;2022-07-29T00:37:48;4.00;;;2.00;;
14474;SDS011;7323;50.848;4.334;2022-07-29T00:40:14;6.77;;;1.93;;
14474;SDS011;7323;50.848;4.334;2022-07-29T00:42:43;4.80;;;1.97;;
14474;SDS011;7323;50.848;4.334;2022-07-29T00:45:10;5.33;;;1.90;;
14474;SDS011;7323;50.848;4.334;2022-07-29T00:47:36;4.50;;;1.73;;
14474;SDS011;7323;50.848;4.334;2022-07-29T00:50:03;4.27;;;1.83;;
14474;SDS011;7323;50.848;4.334;2022-07-29T00:52:30;3.97;;;2.07;;
14474;SDS011;7323;50.848;4.334;2022-07-29T00:54:58;5.03;;;2.10;;
14474;SDS011;7323;50.848;4.334;2022-07-29T01:00:46;3.80;;;1.70;;
14474;SDS011;7323;50.848;4.334;2022-07-29T01:03:12;9.93;;;2.03;;
14474;SDS011;7323;50.848;4.334;2022-07-29T01:05:38;3.63;;;1.77;;
14474;SDS011;7323;50.848;4.334;2022-07-29T01:08:06;4.40;;;1.70;;
14474;SDS011;7323;50.848;4.334;2022-07-29T01:10:32;4.20;;;2.10;;
14474;SDS011;7323;50.848;4.334;2022-07-29T01:13:02;7.47;;;2.17;;
14474;SDS011;7323;50.848;4.334;2022-07-29T01:15:28;3.40;;;1.70;;
14474;SDS011;7323;50.848;4.334;2022-07-29T01:32:11;2.67;;;1.90;;
14474;SDS011;7323;50.848;4.334;2022-07-29T01:34:35;8.67;;;1.97;;
14474;SDS011;7323;50.848;4.334;2022-07-29T01:37:39;4.63;;;2.20;;
14474;SDS011;7323;50.848;4.334;2022-07-29T01:40:25;4.93;;;1.80;;
14474;SDS011;7323;50.848;4.334;2022-07-29T01:43:08;6.40;;;2.07;;
14474;SDS011;7323;50.848;4.334;2022-07-29T01:48:40;5.07;;;1.93;;
14474;SDS011;7323;50.848;4.334;2022-07-29T01:57:12;3.87;;;2.00;;
14474;SDS011;7323;50.848;4.334;2022-07-29T02:03:09;6.13;;;2.00;;
14474;SDS011;7323;50.848;4.334;2022-07-29T02:05:37;4.40;;;1.70;;
14474;SDS011;7323;50.848;4.334;2022-07-29T02:08:06;3.23;;;1.70;;
14474;SDS011;7323;50.848;4.334;2022-07-29T02:10:34;4.63;;;1.90;;
14474;SDS011;7323;50.848;4.334;2022-07-29T02:13:02;4.47;;;2.00;;
14474;SDS011;7323;50.848;4.334;2022-07-29T02:15:32;4.03;;;2.00;;
14474;SDS011;7323;50.848;4.334;2022-07-29T02:18:17;7.23;;;2.20;;
14474;SDS011;7323;50.848;4.334;2022-07-29T02:20:47;5.77;;;2.10;;
14474;SDS011;7323;50.848;4.334;2022-07-29T02:23:14;8.20;;;3.43;;
14474;SDS011;7323;50.848;4.334;2022-07-29T02:25:49;5.10;;;2.00;;
14474;SDS011;7323;50.848;4.334;2022-07-29T02:28:17;5.10;;;2.10;;
14474;SDS011;7323;50.848;4.334;2022-07-29T02:30:45;5.57;;;2.03;;
14474;SDS011;7323;50.848;4.334;2022-07-29T02:33:14;5.67;;;2.27;;
14474;SDS011;7323;50.848;4.334;2022-07-29T02:35:45;3.43;;;1.87;;
14474;SDS011;7323;50.848;4.334;2022-07-29T02:41:48;6.00;;;2.10;;
14474;SDS011;7323;50.848;4.334;2022-07-29T02:44:24;4.53;;;1.87;;
14474;SDS011;7323;50.848;4.334;2022-07-29T02:49:36;5.03;;;1.83;;
14474;SDS011;7323;50.848;4.334;2022-07-29T02:52:05;5.17;;;2.03;;
14474;SDS011;7323;50.848;4.334;2022-07-29T02:54:51;5.30;;;2.23;;
14474;SDS011;7323;50.848;4.334;2022-07-29T02:57:30;8.17;;;2.40;;
14474;SDS011;7323;50.848;4.334;2022-07-29T02:59:59;5.73;;;1.80;;
14474;SDS011;7323;50.848;4.334;2022-07-29T03:02:32;4.33;;;2.00;;
14474;SDS011;7323;50.848;4.334;2022-07-29T03:05:00;4.73;;;2.03;;
14474;SDS011;7323;50.848;4.334;2022-07-29T03:07:28;6.60;;;2.30;;
14474;SDS011;7323;50.848;4.334;2022-07-29T03:09:54;5.23;;;2.27;;
14474;SDS011;7323;50.848;4.334;2022-07-29T03:12:21;5.93;;;1.90;;
14474;SDS011;7323;50.848;4.334;2022-07-29T03:14:48;7.33;;;2.30;;
14474;SDS011;7323;50.848;4.334;2022-07-29T03:17:14;7.67;;;2.13;;
14474;SDS011;7323;50.848;4.334;2022-07-29T03:19:40;6.23;;;2.53;;
14474;SDS011;7323;50.848;4.334;2022-07-29T03:22:06;5.27;;;2.40;;
14474;SDS011;7323;50.848;4.334;2022-07-29T03:24:33;3.50;;;1.80;;
14474;SDS011;7323;50.848;4.334;2022-07-29T03:27:01;4.77;;;2.07;;
14474;SDS011;7323;50.848;4.334;2022-07-29T03:29:28;4.30;;;2.30;;
14474;SDS011;7323;50.848;4.334;2022-07-29T03:31:54;3.50;;;1.90;;
14474;SDS011;7323;50.848;4.334;2022-07-29T03:34:20;7.27;;;2.43;;
14474;SDS011;7323;50.848;4.334;2022-07-29T03:36:46;3.93;;;2.20;;
14474;SDS011;7323;50.848;4.334;2022-07-29T03:39:12;5.43;;;2.30;;
14474;SDS011;7323;50.848;4.334;2022-07-29T03:41:43;5.63;;;2.30;;
14474;SDS011;7323;50.848;4.334;2022-07-29T03:44:11;6.27;;;2.50;;
14474;SDS011;7323;50.848;4.334;2022-07-29T03:46:39;5.40;;;2.43;;
14474;SDS011;7323;50.848;4.334;2022-07-29T03:49:09;5.40;;;2.23;;
14474;SDS011;7323;50.848;4.334;2022-07-29T03:54:06;5.73;;;2.70;;
14474;SDS011;7323;50.848;4.334;2022-07-29T03:56:32;4.93;;;2.27;;
14474;SDS011;7323;50.848;4.334;2022-07-29T03:59:02;4.43;;;2.20;;
14474;SDS011;7323;50.848;4.334;2022-07-29T04:01:29;4.37;;;2.67;;
14474;SDS011;7323;50.848;4.334;2022-07-29T04:03:55;5.50;;;2.50;;
14474;SDS011;7323;50.848;4.334;2022-07-29T04:06:22;5.57;;;2.47;;
14474;SDS011;7323;50.848;4.334;2022-07-29T04:09:04;6.13;;;2.90;;
14474;SDS011;7323;50.848;4.334;2022-07-29T04:11:38;5.83;;;2.47;;
14474;SDS011;7323;50.848;4.334;2022-07-29T04:14:04;5.17;;;2.87;;
14474;SDS011;7323;50.848;4.334;2022-07-29T04:16:30;5.67;;;2.80;;
14474;SDS011;7323;50.848;4.334;2022-07-29T04:18:56;9.63;;;3.10;;
14474;SDS011;7323;50.848;4.334;2022-07-29T04:21:27;7.00;;;2.90;;
14474;SDS011;7323;50.848;4.334;2022-07-29T04:23:54;4.43;;;2.53;;
14474;SDS011;7323;50.848;4.334;2022-07-29T04:26:20;6.57;;;3.23;;
14474;SDS011;7323;50.848;4.334;2022-07-29T04:28:46;5.40;;;2.83;;
14474;SDS011;7323;50.848;4.334;2022-07-29T04:31:12;5.50;;;2.90;;
14474;SDS011;7323;50.848;4.334;2022-07-29T04:33:39;4.67;;;3.00;;
14474;SDS011;7323;50.848;4.334;2022-07-29T04:36:04;4.87;;;3.00;;
14474;SDS011;7323;50.848;4.334;2022-07-29T04:38:30;7.10;;;2.90;;
14474;SDS011;7323;50.848;4.334;2022-07-29T04:40:56;4.47;;;2.90;;
14474;SDS011;7323;50.848;4.334;2022-07-29T04:43:22;4.50;;;2.80;;
14474;SDS011;7323;50.848;4.334;2022-07-29T04:45:47;5.87;;;3.03;;
14474;SDS011;7323;50.848;4.334;2022-07-29T04:48:13;4.53;;;3.10;;
14474;SDS011;7323;50.848;4.334;2022-07-29T04:50:39;7.63;;;3.53;;
14474;SDS011;7323;50.848;4.334;2022-07-29T04:53:06;6.37;;;3.17;;
14474;SDS011;7323;50.848;4.334;2022-07-29T04:55:32;7.07;;;3.10;;
14474;SDS011;7323;50.848;4.334;2022-07-29T04:57:58;6.83;;;2.90;;
14474;SDS011;7323;50.848;4.334;2022-07-29T05:00:24;4.60;;;3.00;;
14474;SDS011;7323;50.848;4.334;2022-07-29T05:02:50;5.30;;;3.10;;
14474;SDS011;7323;50.848;4.334;2022-07-29T05:05:15;3.47;;;2.77;;
14474;SDS011;7323;50.848;4.334;2022-07-29T05:07:41;5.07;;;3.23;;
14474;SDS011;7323;50.848;4.334;2022-07-29T05:10:08;6.47;;;3.07;;
14474;SDS011;7323;50.848;4.334;2022-07-29T05:12:34;7.20;;;3.03;;
14474;SDS011;7323;50.848;4.334;2022-07-29T05:14:59;7.37;;;3.77;;
14474;SDS011;7323;50.848;4.334;2022-07-29T05:17:25;8.97;;;3.20;;
14474;SDS011;7323;50.848;4.334;2022-07-29T05:19:52;10.03;;;3.87;;
14474;SDS011;7323;50.848;4.334;2022-07-29T05:22:18;5.90;;;3.20;;
14474;SDS011;7323;50.848;4.334;2022-07-29T05:24:44;5.67;;;3.07;;
14474;SDS011;7323;50.848;4.334;2022-07-29T05:27:11;11.30;;;3.37;;
14474;SDS011;7323;50.848;4.334;2022-07-29T05:29:37;7.60;;;3.20;;
14474;SDS011;7323;50.848;4.334;2022-07-29T05:32:04;4.90;;;2.73;;
14474;SDS011;7323;50.848;4.334;2022-07-29T05:34:30;5.50;;;3.30;;
14474;SDS011;7323;50.848;4.334;2022-07-29T05:36:58;7.83;;;3.17;;
14474;SDS011;7323;50.848;4.334;2022-07-29T05:39:24;7.17;;;3.27;;
14474;SDS011;7323;50.848;4.334;2022-07-29T05:41:50;7.87;;;3.87;;
14474;SDS011;7323;50.848;4.334;2022-07-29T05:44:18;11.37;;;3.63;;
14474;SDS011;7323;50.848;4.334;2022-07-29T05:46:47;5.87;;;3.57;;
14474;SDS011;7323;50.848;4.334;2022-07-29T05:49:13;7.63;;;3.70;;
14474;SDS011;7323;50.848;4.334;2022-07-29T05:51:39;11.93;;;4.00;;
14474;SDS011;7323;50.848;4.334;2022-07-29T05:54:08;5.87;;;3.50;;
14474;SDS011;7323;50.848;4.334;2022-07-29T05:59:55;7.43;;;3.80;;
14474;SDS011;7323;50.848;4.334;2022-07-29T06:02:30;5.10;;;3.50;;
14474;SDS011;7323;50.848;4.334;2022-07-29T06:08:18;6.03;;;3.53;;
14474;SDS011;7323;50.848;4.334;2022-07-29T06:16:36;9.93;;;3.80;;
14474;SDS011;7323;50.848;4.334;2022-07-29T06:19:02;9.90;;;3.50;;
14474;SDS011;7323;50.848;4.334;2022-07-29T06:21:27;5.70;;;3.87;;
14474;SDS011;7323;50.848;4.334;2022-07-29T06:23:53;6.57;;;3.80;;
14474;SDS011;7323;50.848;4.334;2022-07-29T06:26:19;6.27;;;3.77;;
14474;SDS011;7323;50.848;4.334;2022-07-29T06:28:45;7.50;;;3.63;;
14474;SDS011;7323;50.848;4.334;2022-07-29T06:31:12;5.73;;;3.80;;
14474;SDS011;7323;50.848;4.334;2022-07-29T06:33:38;5.67;;;3.63;;
14474;SDS011;7323;50.848;4.334;2022-07-29T06:36:16;7.93;;;3.93;;
14474;SDS011;7323;50.848;4.334;2022-07-29T06:41:12;10.37;;;4.20;;
14474;SDS011;7323;50.848;4.334;2022-07-29T06:43:42;9.00;;;3.97;;
14474;SDS011;7323;50.848;4.334;2022-07-29T06:46:15;7.43;;;3.93;;
14474;SDS011;7323;50.848;4.334;2022-07-29T06:48:45;8.10;;;4.00;;
14474;SDS011;7323;50.848;4.334;2022-07-29T06:51:12;7.23;;;3.53;;
14474;SDS011;7323;50.848;4.334;2022-07-29T06:53:38;8.40;;;4.77;;
14474;SDS011;7323;50.848;4.334;2022-07-29T06:56:05;6.80;;;3.90;;
14474;SDS011;7323;50.848;4.334;2022-07-29T07:01:05;9.33;;;3.97;;
14474;SDS011;7323;50.848;4.334;2022-07-29T07:03:33;6.57;;;4.00;;
14474;SDS011;7323;50.848;4.334;2022-07-29T07:05:59;5.87;;;3.80;;
14474;SDS011;7323;50.848;4.334;2022-07-29T07:08:25;5.57;;;4.33;;
14474;SDS011;7323;50.848;4.334;2022-07-29T07:10:51;8.90;;;4.60;;
14474;SDS011;7323;50.848;4.334;2022-07-29T07:13:17;7.47;;;4.57;;
14474;SDS011;7323;50.848;4.334;2022-07-29T07:15:45;6.33;;;3.93;;
14474;SDS011;7323;50.848;4.334;2022-07-29T07:18:13;7.40;;;4.73;;
14474;SDS011;7323;50.848;4.334;2022-07-29T07:20:40;9.13;;;4.50;;
14474;SDS011;7323;50.848;4.334;2022-07-29T07:23:06;9.13;;;5.17;;
14474;SDS011;7323;50.848;4.334;2022-07-29T07:25:32;6.97;;;4.00;;
14474;SDS011;7323;50.848;4.334;2022-07-29T07:27:58;8.70;;;4.07;;
14474;SDS011;7323;50.848;4.334;2022-07-29T07:30:24;6.63;;;4.37;;
14474;SDS011;7323;50.848;4.334;2022-07-29T07:32:51;6.53;;;4.73;;
14474;SDS011;7323;50.848;4.334;2022-07-29T07:35:17;7.63;;;4.20;;
14474;SDS011;7323;50.848;4.334;2022-07-29T07:37:43;9.10;;;4.23;;
14474;SDS011;7323;50.848;4.334;2022-07-29T07:40:09;6.63;;;3.97;;
14474;SDS011;7323;50.848;4.334;2022-07-29T07:42:39;6.70;;;4.00;;
14474;SDS011;7323;50.848;4.334;2022-07-29T07:45:06;10.73;;;4.57;;
14474;SDS011;7323;50.848;4.334;2022-07-29T07:47:34;6.07;;;4.20;;
14474;SDS011;7323;50.848;4.334;2022-07-29T07:50:02;4.87;;;3.53;;
14474;SDS011;7323;50.848;4.334;2022-07-29T07:52:32;5.47;;;3.30;;
14474;SDS011;7323;50.848;4.334;2022-07-29T07:54:59;6.37;;;3.40;;
14474;SDS011;7323;50.848;4.334;2022-07-29T07:57:25;6.30;;;3.83;;
14474;SDS011;7323;50.848;4.334;2022-07-29T07:59:51;5.53;;;3.77;;
14474;SDS011;7323;50.848;4.334;2022-07-29T08:02:16;6.10;;;3.83;;
14474;SDS011;7323;50.848;4.334;2022-07-29T08:04:42;8.47;;;3.43;;
14474;SDS011;7323;50.848;4.334;2022-07-29T08:07:08;6.30;;;3.93;;
14474;SDS011;7323;50.848;4.334;2022-07-29T08:09:34;6.77;;;3.20;;
14474;SDS011;7323;50.848;4.334;2022-07-29T08:12:00;8.07;;;3.70;;
14474;SDS011;7323;50.848;4.334;2022-07-29T08:14:30;5.43;;;3.60;;
14474;SDS011;7323;50.848;4.334;2022-07-29T08:17:03;7.37;;;3.70;;
14474;SDS011;7323;50.848;4.334;2022-07-29T08:19:29;4.73;;;3.23;;
14474;SDS011;7323;50.848;4.334;2022-07-29T08:21:54;5.90;;;3.40;;
14474;SDS011;7323;50.848;4.334;2022-07-29T08:24:20;5.27;;;3.17;;
14474;SDS011;7323;50.848;4.334;2022-07-29T08:27:05;4.53;;;3.23;;
14474;SDS011;7323;50.848;4.334;2022-07-29T08:29:30;6.93;;;3.30;;
14474;SDS011;7323;50.848;4.334;2022-07-29T08:31:56;4.73;;;2.70;;
14474;SDS011;7323;50.848;4.334;2022-07-29T08:34:22;4.47;;;2.57;;
14474;SDS011;7323;50.848;4.334;2022-07-29T08:36:48;5.27;;;2.73;;
14474;SDS011;7323;50.848;4.334;2022-07-29T08:39:13;6.73;;;3.23;;
14474;SDS011;7323;50.848;4.334;2022-07-29T08:41:39;5.00;;;2.87;;
14474;SDS011;7323;50.848;4.334;2022-07-29T08:44:05;6.40;;;2.67;;
14474;SDS011;7323;50.848;4.334;2022-07-29T08:46:31;4.20;;;2.50;;
14474;SDS011;7323;50.848;4.334;2022-07-29T08:48:56;3.83;;;2.30;;
14474;SDS011;7323;50.848;4.334;2022-07-29T08:51:22;3.63;;;2.60;;
14474;SDS011;7323;50.848;4.334;2022-07-29T08:53:51;6.10;;;2.80;;
14474;SDS011;7323;50.848;4.334;2022-07-29T08:56:19;5.83;;;2.40;;
14474;SDS011;7323;50.848;4.334;2022-07-29T08:58:46;7.93;;;2.73;;
14474;SDS011;7323;50.848;4.334;2022-07-29T09:01:16;7.33;;;3.00;;
14474;SDS011;7323;50.848;4.334;2022-07-29T09:03:46;4.17;;;2.80;;
14474;SDS011;7323;50.848;4.334;2022-07-29T09:06:17;6.03;;;2.90;;
14474;SDS011;7323;50.848;4.334;2022-07-29T09:08:44;3.93;;;2.97;;
14474;SDS011;7323;50.848;4.334;2022-07-29T09:11:13;6.57;;;2.60;;
14474;SDS011;7323;50.848;4.334;2022-07-29T09:13:40;4.53;;;2.60;;
14474;SDS011;7323;50.848;4.334;2022-07-29T09:16:05;5.97;;;2.50;;
14474;SDS011;7323;50.848;4.334;2022-07-29T09:18:41;7.47;;;2.90;;
14474;SDS011;7323;50.848;4.334;2022-07-29T09:21:10;4.33;;;2.60;;
14474;SDS011;7323;50.848;4.334;2022-07-29T09:24:06;4.57;;;2.63;;
14474;SDS011;7323;50.848;4.334;2022-07-29T09:26:35;6.40;;;2.70;;
14474;SDS011;7323;50.848;4.334;2022-07-29T09:32:08;5.73;;;3.10;;
14474;SDS011;7323;50.848;4.334;2022-07-29T09:34:35;6.27;;;3.17;;
14474;SDS011;7323;50.848;4.334;2022-07-29T09:37:02;6.10;;;2.73;;
14474;SDS011;7323;50.848;4.334;2022-07-29T09:39:37;3.83;;;2.13;;
14474;SDS011;7323;50.848;4.334;2022-07-29T09:42:11;4.40;;;2.63;;
14474;SDS011;7323;50.848;4.334;2022-07-29T09:44:42;4.40;;;2.60;;
14474;SDS011;7323;50.848;4.334;2022-07-29T09:47:11;5.80;;;2.50;;
14474;SDS011;7323;50.848;4.334;2022-07-29T09:49:52;8.20;;;2.60;;
14474;SDS011;7323;50.848;4.334;2022-07-29T09:52:27;4.33;;;2.37;;
14474;SDS011;7323;50.848;4.334;2022-07-29T09:55:07;7.70;;;2.60;;
14474;SDS011;7323;50.848;4.334;2022-07-29T10:06:55;5.73;;;2.30;;
14474;SDS011;7323;50.848;4.334;2022-07-29T10:09:25;4.87;;;2.00;;
14474;SDS011;7323;50.848;4.334;2022-07-29T10:12:03;4.60;;;2.20;;
14474;SDS011;7323;50.848;4.334;2022-07-29T10:14:39;7.20;;;2.50;;
14474;SDS011;7323;50.848;4.334;2022-07-29T10:17:06;5.60;;;2.60;;
14474;SDS011;7323;50.848;4.334;2022-07-29T10:19:34;5.93;;;3.03;;
14474;SDS011;7323;50.848;4.334;2022-07-29T10:22:18;5.50;;;2.20;;
14474;SDS011;7323;50.848;4.334;2022-07-29T10:27:13;8.80;;;2.80;;
14474;SDS011;7323;50.848;4.334;2022-07-29T10:29:40;7.30;;;2.20;;
14474;SDS011;7323;50.848;4.334;2022-07-29T10:32:08;4.93;;;2.00;;
14474;SDS011;7323;50.848;4.334;2022-07-29T10:40:09;4.73;;;2.57;;
14474;SDS011;7323;50.848;4.334;2022-07-29T10:46:17;6.43;;;2.90;;
14474;SDS011;7323;50.848;4.334;2022-07-29T10:54:19;5.97;;;2.60;;
14474;SDS011;7323;50.848;4.334;2022-07-29T10:59:46;5.43;;;2.50;;
14474;SDS011;7323;50.848;4.334;2022-07-29T11:05:51;4.00;;;2.27;;
14474;SDS011;7323;50.848;4.334;2022-07-29T11:08:22;6.07;;;3.20;;
14474;SDS011;7323;50.848;4.334;2022-07-29T11:10:51;3.83;;;2.47;;
14474;SDS011;7323;50.848;4.334;2022-07-29T11:16:09;5.43;;;2.60;;
14474;SDS011;7323;50.848;4.334;2022-07-29T11:18:34;4.77;;;2.13;;
14474;SDS011;7323;50.848;4.334;2022-07-29T11:21:00;7.37;;;2.97;;
14474;SDS011;7323;50.848;4.334;2022-07-29T11:23:29;7.37;;;2.63;;
14474;SDS011;7323;50.848;4.334;2022-07-29T11:26:13;4.47;;;2.17;;
14474;SDS011;7323;50.848;4.334;2022-07-29T11:29:16;4.67;;;1.97;;
14474;SDS011;7323;50.848;4.334;2022-07-29T11:34:49;5.20;;;2.53;;
14474;SDS011;7323;50.848;4.334;2022-07-29T11:37:41;7.80;;;3.07;;
14474;SDS011;7323;50.848;4.334;2022-07-29T11:50:17;7.17;;;2.90;;
14474;SDS011;7323;50.848;4.334;2022-07-29T11:52:53;6.97;;;3.20;;
14474;SDS011;7323;50.848;4.334;2022-07-29T11:55:22;5.80;;;2.83;;
14474;SDS011;7323;50.848;4.334;2022-07-29T11:57:53;7.60;;;3.27;;
14474;SDS011;7323;50.848;4.334;2022-07-29T12:00:23;6.30;;;3.30;;
14474;SDS011;7323;50.848;4.334;2022-07-29T12:02:54;4.90;;;2.90;;
14474;SDS011;7323;50.848;4.334;2022-07-29T12:08:10;5.40;;;2.67;;
14474;SDS011;7323;50.848;4.334;2022-07-29T12:10:37;6.27;;;2.83;;
14474;SDS011;7323;50.848;4.334;2022-07-29T12:15:41;4.30;;;2.40;;
14474;SDS011;7323;50.848;4.334;2022-07-29T12:18:17;8.17;;;2.70;;
14474;SDS011;7323;50.848;4.334;2022-07-29T12:23:31;5.23;;;2.97;;
14474;SDS011;7323;50.848;4.334;2022-07-29T12:25:57;4.10;;;2.50;;
14474;SDS011;7323;50.848;4.334;2022-07-29T12:28:25;4.93;;;2.37;;
14474;SDS011;7323;50.848;4.334;2022-07-29T12:30:51;7.03;;;3.10;;
14474;SDS011;7323;50.848;4.334;2022-07-29T12:35:48;7.03;;;3.00;;
14474;SDS011;7323;50.848;4.334;2022-07-29T12:44:20;6.47;;;3.60;;
14474;SDS011;7323;50.848;4.334;2022-07-29T12:47:00;7.43;;;3.13;;
14474;SDS011;7323;50.848;4.334;2022-07-29T12:49:27;8.80;;;3.13;;
14474;SDS011;7323;50.848;4.334;2022-07-29T12:51:53;8.53;;;3.53;;
14474;SDS011;7323;50.848;4.334;2022-07-29T12:54:18;6.30;;;2.60;;
14474;SDS011;7323;50.848;4.334;2022-07-29T12:56:45;4.23;;;2.70;;
14474;SDS011;7323;50.848;4.334;2022-07-29T12:59:16;5.57;;;2.77;;
14474;SDS011;7323;50.848;4.334;2022-07-29T13:01:47;5.73;;;2.80;;
14474;SDS011;7323;50.848;4.334;2022-07-29T13:07:27;4.03;;;2.07;;
14474;SDS011;7323;50.848;4.334;2022-07-29T13:10:00;5.07;;;2.83;;
14474;SDS011;7323;50.848;4.334;2022-07-29T13:15:43;4.87;;;2.50;;
14474;SDS011;7323;50.848;4.334;2022-07-29T13:18:31;6.83;;;2.60;;
14474;SDS011;7323;50.848;4.334;2022-07-29T13:21:11;6.57;;;2.17;;
14474;SDS011;7323;50.848;4.334;2022-07-29T13:23:39;6.83;;;2.13;;
14474;SDS011;7323;50.848;4.334;2022-07-29T13:26:08;6.57;;;2.50;;
14474;SDS011;7323;50.848;4.334;2022-07-29T13:28:34;5.20;;;2.33;;
14474;SDS011;7323;50.848;4.334;2022-07-29T13:31:01;6.87;;;2.47;;
14474;SDS011;7323;50.848;4.334;2022-07-29T13:33:27;3.93;;;2.40;;
14474;SDS011;7323;50.848;4.334;2022-07-29T13:35:53;5.13;;;1.97;;
14474;SDS011;7323;50.848;4.334;2022-07-29T13:38:19;3.40;;;1.97;;
14474;SDS011;7323;50.848;4.334;2022-07-29T13:40:45;2.67;;;1.90;;
14474;SDS011;7323;50.848;4.334;2022-07-29T13:43:11;4.87;;;1.87;;
14474;SDS011;7323;50.848;4.334;2022-07-29T13:45:38;4.07;;;2.00;;
14474;SDS011;7323;50.848;4.334;2022-07-29T13:48:03;8.60;;;2.30;;
14474;SDS011;7323;50.848;4.334;2022-07-29T13:50:31;5.43;;;2.00;;
14474;SDS011;7323;50.848;4.334;2022-07-29T13:52:57;4.70;;;2.20;;
14474;SDS011;7323;50.848;4.334;2022-07-29T13:55:23;4.80;;;2.43;;
14474;SDS011;7323;50.848;4.334;2022-07-29T14:00:21;5.37;;;2.03;;
14474;SDS011;7323;50.848;4.334;2022-07-29T14:02:56;3.93;;;1.73;;
14474;SDS011;7323;50.848;4.334;2022-07-29T14:09:02;3.83;;;1.83;;
14474;SDS011;7323;50.848;4.334;2022-07-29T14:11:33;5.00;;;2.13;;
14474;SDS011;7323;50.848;4.334;2022-07-29T14:13:59;4.50;;;2.03;;
14474;SDS011;7323;50.848;4.334;2022-07-29T14:16:31;4.87;;;2.30;;
14474;SDS011;7323;50.848;4.334;2022-07-29T14:18:57;3.67;;;1.87;;
14474;SDS011;7323;50.848;4.334;2022-07-29T14:21:22;3.97;;;2.30;;
14474;SDS011;7323;50.848;4.334;2022-07-29T14:23:48;6.03;;;2.40;;
14474;SDS011;7323;50.848;4.334;2022-07-29T14:26:17;5.03;;;2.20;;
14474;SDS011;7323;50.848;4.334;2022-07-29T14:28:43;5.67;;;1.97;;
14474;SDS011;7323;50.848;4.334;2022-07-29T14:31:09;4.93;;;2.33;;
14474;SDS011;7323;50.848;4.334;2022-07-29T14:33:35;4.97;;;1.97;;
14474;SDS011;7323;50.848;4.334;2022-07-29T14:36:00;6.03;;;2.40;;
14474;SDS011;7323;50.848;4.334;2022-07-29T14:38:26;4.37;;;2.03;;
14474;SDS011;7323;50.848;4.334;2022-07-29T14:40:52;6.33;;;2.03;;
14474;SDS011;7323;50.848;4.334;2022-07-29T14:43:19;9.03;;;2.20;;
14474;SDS011;7323;50.848;4.334;2022-07-29T14:45:45;4.33;;;2.00;;
14474;SDS011;7323;50.848;4.334;2022-07-29T14:48:12;5.90;;;2.00;;
14474;SDS011;7323;50.848;4.334;2022-07-29T14:50:39;2.83;;;1.97;;
14474;SDS011;7323;50.848;4.334;2022-07-29T14:53:06;5.10;;;1.90;;
14474;SDS011;7323;50.848;4.334;2022-07-29T14:55:32;5.37;;;2.33;;
14474;SDS011;7323;50.848;4.334;2022-07-29T14:57:59;4.43;;;1.83;;
14474;SDS011;7323;50.848;4.334;2022-07-29T15:00:25;4.73;;;2.23;;
14474;SDS011;7323;50.848;4.334;2022-07-29T15:02:51;6.13;;;1.97;;
14474;SDS011;7323;50.848;4.334;2022-07-29T15:05:17;5.87;;;2.60;;
14474;SDS011;7323;50.848;4.334;2022-07-29T15:07:48;6.80;;;2.70;;
14474;SDS011;7323;50.848;4.334;2022-07-29T15:13:14;5.47;;;2.23;;
14474;SDS011;7323;50.848;4.334;2022-07-29T15:15:39;3.40;;;1.80;;
14474;SDS011;7323;50.848;4.334;2022-07-29T15:18:09;4.80;;;2.00;;
14474;SDS011;7323;50.848;4.334;2022-07-29T15:20:34;5.47;;;2.17;;
14474;SDS011;7323;50.848;4.334;2022-07-29T15:23:00;3.73;;;2.20;;
14474;SDS011;7323;50.848;4.334;2022-07-29T15:25:26;4.10;;;1.97;;
14474;SDS011;7323;50.848;4.334;2022-07-29T15:30:24;7.40;;;2.17;;
14474;SDS011;7323;50.848;4.334;2022-07-29T15:32:49;3.30;;;2.23;;
14474;SDS011;7323;50.848;4.334;2022-07-29T15:35:15;4.30;;;2.60;;
14474;SDS011;7323;50.848;4.334;2022-07-29T15:37:43;6.63;;;3.40;;
14474;SDS011;7323;50.848;4.334;2022-07-29T15:40:09;5.47;;;3.03;;
14474;SDS011;7323;50.848;4.334;2022-07-29T15:42:35;5.03;;;2.77;;
14474;SDS011;7323;50.848;4.334;2022-07-29T15:45:02;6.80;;;2.80;;
14474;SDS011;7323;50.848;4.334;2022-07-29T15:47:29;5.57;;;2.80;;
14474;SDS011;7323;50.848;4.334;2022-07-29T15:49:54;3.87;;;2.93;;
14474;SDS011;7323;50.848;4.334;2022-07-29T15:52:20;6.97;;;3.00;;
14474;SDS011;7323;50.848;4.334;2022-07-29T15:54:46;8.00;;;2.90;;
14474;SDS011;7323;50.848;4.334;2022-07-29T15:57:15;4.47;;;2.77;;
14474;SDS011;7323;50.848;4.334;2022-07-29T15:59:41;6.70;;;2.83;;
14474;SDS011;7323;50.848;4.334;2022-07-29T16:02:07;4.20;;;2.80;;
14474;SDS011;7323;50.848;4.334;2022-07-29T16:04:33;3.70;;;2.33;;
14474;SDS011;7323;50.848;4.334;2022-07-29T16:06:58;7.40;;;3.10;;
14474;SDS011;7323;50.848;4.334;2022-07-29T16:09:24;5.33;;;2.83;;
14474;SDS011;7323;50.848;4.334;2022-07-29T16:11:52;6.07;;;3.00;;
14474;SDS011;7323;50.848;4.334;2022-07-29T16:14:19;9.20;;;3.20;;
14474;SDS011;7323;50.848;4.334;2022-07-29T16:16:45;5.67;;;2.97;;
14474;SDS011;7323;50.848;4.334;2022-07-29T16:19:11;5.23;;;2.80;;
14474;SDS011;7323;50.848;4.334;2022-07-29T16:21:37;4.27;;;3.17;;
14474;SDS011;7323;50.848;4.334;2022-07-29T16:24:04;5.80;;;3.40;;
14474;SDS011;7323;50.848;4.334;2022-07-29T16:26:31;6.20;;;3.47;;
14474;SDS011;7323;50.848;4.334;2022-07-29T16:28:58;5.33;;;2.83;;
14474;SDS011;7323;50.848;4.334;2022-07-29T16:31:24;7.87;;;3.70;;
14474;SDS011;7323;50.848;4.334;2022-07-29T16:33:51;7.43;;;2.93;;
14474;SDS011;7323;50.848;4.334;2022-07-29T16:36:17;5.83;;;2.80;;
14474;SDS011;7323;50.848;4.334;2022-07-29T16:38:44;6.07;;;2.97;;
14474;SDS011;7323;50.848;4.334;2022-07-29T16:41:10;6.67;;;3.60;;
14474;SDS011;7323;50.848;4.334;2022-07-29T16:43:36;5.27;;;2.90;;
14474;SDS011;7323;50.848;4.334;2022-07-29T16:46:02;5.90;;;3.07;;
14474;SDS011;7323;50.848;4.334;2022-07-29T16:48:28;7.33;;;3.10;;
14474;SDS011;7323;50.848;4.334;2022-07-29T16:50:53;5.87;;;3.20;;
14474;SDS011;7323;50.848;4.334;2022-07-29T16:53:20;4.37;;;3.13;;
14474;SDS011;7323;50.848;4.334;2022-07-29T16:55:48;6.27;;;3.03;;
14474;SDS011;7323;50.848;4.334;2022-07-29T16:58:13;5.87;;;2.90;;
14474;SDS011;7323;50.848;4.334;2022-07-29T17:00:39;5.03;;;3.37;;
14474;SDS011;7323;50.848;4.334;2022-07-29T17:03:05;5.17;;;3.10;;
14474;SDS011;7323;50.848;4.334;2022-07-29T17:05:31;4.90;;;2.70;;
14474;SDS011;7323;50.848;4.334;2022-07-29T17:07:57;6.30;;;2.83;;
14474;SDS011;7323;50.848;4.334;2022-07-29T17:10:23;5.17;;;2.63;;
14474;SDS011;7323;50.848;4.334;2022-07-29T17:12:50;5.43;;;2.70;;
14474;SDS011;7323;50.848;4.334;2022-07-29T17:15:16;6.17;;;2.70;;
14474;SDS011;7323;50.848;4.334;2022-07-29T17:17:44;5.50;;;2.33;;
14474;SDS011;7323;50.848;4.334;2022-07-29T17:20:11;4.60;;;2.40;;
14474;SDS011;7323;50.848;4.334;2022-07-29T17:22:38;3.90;;;2.30;;
14474;SDS011;7323;50.848;4.334;2022-07-29T17:25:05;7.33;;;2.37;;
14474;SDS011;7323;50.848;4.334;2022-07-29T17:27:35;9.47;;;3.43;;
14474;SDS011;7323;50.848;4.334;2022-07-29T17:30:02;5.07;;;2.57;;